createdAt,value
2018-07-19T00:01:38.479Z,0.40
2018-07-19T00:04:09.815Z,0.30
2018-07-19T00:06:41.044Z,0.37
2018-07-19T00:09:12.581Z,0.40
2018-07-19T00:11:43.932Z,0.40
2018-07-19T00:14:15.329Z,0.30
2018-07-19T00:16:46.632Z,0.50
2018-07-19T00:19:18.015Z,0.50
2018-07-19T00:21:49.519Z,0.80
2018-07-19T00:24:20.722Z,0.43
2018-07-19T00:26:51.964Z,0.50
2018-07-19T00:29:23.391Z,0.60
2018-07-19T00:31:54.654Z,0.50
2018-07-19T00:34:26.020Z,0.50
2018-07-19T00:36:57.438Z,0.40
2018-07-19T00:39:28.722Z,0.37
2018-07-19T00:42:00.004Z,0.60
2018-07-19T00:44:31.374Z,0.40
2018-07-19T00:47:02.575Z,0.30
2018-07-19T00:49:33.998Z,0.40
2018-07-19T00:52:05.480Z,0.50
2018-07-19T00:54:36.762Z,1.03
2018-07-19T00:57:08.107Z,1.07
2018-07-19T00:59:39.411Z,0.80
2018-07-19T01:02:10.711Z,0.60
2018-07-19T01:04:42.053Z,1.37
2018-07-19T01:07:13.304Z,2.70
2018-07-19T01:09:44.603Z,1.80
2018-07-19T01:12:15.950Z,0.90
2018-07-19T01:14:47.229Z,1.17
2018-07-19T01:17:18.440Z,0.80
2018-07-19T01:19:49.773Z,1.13
2018-07-19T01:22:21.163Z,1.40
2018-07-19T01:24:52.435Z,1.60
2018-07-19T01:27:23.741Z,1.43
2018-07-19T01:29:55.238Z,1.20
2018-07-19T01:32:26.652Z,2.20
2018-07-19T01:34:57.994Z,2.07
2018-07-19T01:37:29.223Z,2.10
2018-07-19T01:40:00.678Z,1.60
2018-07-19T01:42:41.807Z,1.37
2018-07-19T01:45:13.761Z,1.50
2018-07-19T01:47:45.294Z,1.20
2018-07-19T01:50:16.706Z,1.20
2018-07-19T01:52:47.944Z,1.33
2018-07-19T01:55:19.380Z,1.37
2018-07-19T01:57:50.651Z,1.20
2018-07-19T02:00:21.970Z,0.87
2018-07-19T02:02:53.247Z,1.10
2018-07-19T02:05:24.633Z,1.33
2018-07-19T02:07:56.372Z,0.70
2018-07-19T02:10:27.507Z,1.03
2018-07-19T02:12:58.844Z,0.93
2018-07-19T02:15:30.149Z,0.93
2018-07-19T02:18:01.448Z,1.13
2018-07-19T02:20:32.672Z,1.20
2018-07-19T02:23:04.100Z,1.17
2018-07-19T02:25:35.361Z,1.10
2018-07-19T02:28:06.712Z,0.90
2018-07-19T02:30:38.052Z,1.30
2018-07-19T02:33:09.505Z,1.00
2018-07-19T02:35:40.860Z,1.40
2018-07-19T02:38:12.054Z,0.93
2018-07-19T02:40:43.346Z,1.00
2018-07-19T02:43:14.697Z,1.07
2018-07-19T02:45:46.148Z,1.20
2018-07-19T02:48:17.628Z,0.97
2018-07-19T02:50:49.055Z,1.17
2018-07-19T02:53:20.431Z,1.30
2018-07-19T02:55:51.828Z,1.07
2018-07-19T02:58:23.218Z,1.03
2018-07-19T03:00:54.495Z,1.10
2018-07-19T03:03:25.877Z,1.53
2018-07-19T03:05:57.283Z,1.30
2018-07-19T03:08:28.693Z,1.40
2018-07-19T03:11:00.245Z,1.40
2018-07-19T03:13:31.529Z,1.27
2018-07-19T03:16:02.886Z,1.50
2018-07-19T03:18:34.149Z,1.57
2018-07-19T03:21:05.581Z,1.60
2018-07-19T03:23:36.901Z,1.60
2018-07-19T03:26:08.346Z,1.23
2018-07-19T03:28:39.785Z,1.60
2018-07-19T03:31:11.442Z,1.20
2018-07-19T03:33:42.721Z,1.47
2018-07-19T03:36:14.193Z,1.40
2018-07-19T03:38:45.607Z,1.37
2018-07-19T03:41:16.993Z,1.73
2018-07-19T03:43:48.208Z,1.47
2018-07-19T03:46:19.616Z,1.53
2018-07-19T03:48:51.345Z,1.80
2018-07-19T04:28:09.938Z,1.80
2018-07-19T04:30:40.494Z,1.80
2018-07-19T04:33:11.882Z,1.93
2018-07-19T04:35:44.329Z,1.83
2018-07-19T04:38:15.872Z,1.70
2018-07-19T04:40:48.505Z,1.93
2018-07-19T04:43:19.775Z,1.90
2018-07-19T04:45:51.164Z,1.83
2018-07-19T04:48:22.606Z,1.70
2018-07-19T04:50:55.198Z,1.93
2018-07-19T04:53:27.256Z,1.97
2018-07-19T04:55:58.606Z,1.90
2018-07-19T04:58:30.005Z,2.20
2018-07-19T05:01:03.407Z,2.40
2018-07-19T05:03:35.540Z,2.10
2018-07-19T05:06:06.676Z,2.60
2018-07-19T05:08:38.952Z,2.30
2018-07-19T05:11:10.380Z,2.60
2018-07-19T05:13:41.812Z,2.30
2018-07-19T05:16:13.143Z,2.60
2018-07-19T05:18:44.526Z,2.37
2018-07-19T05:21:15.861Z,2.40
2018-07-19T05:23:47.137Z,2.20
2018-07-19T05:26:18.460Z,2.13
2018-07-19T05:28:50.012Z,2.67
2018-07-19T05:31:21.344Z,2.50
2018-07-19T05:33:52.602Z,3.00
2018-07-19T05:36:24.034Z,2.30
2018-07-19T05:38:55.518Z,2.30
2018-07-19T05:41:26.980Z,2.47
2018-07-19T05:43:58.263Z,2.37
2018-07-19T05:46:29.909Z,2.43
2018-07-19T05:49:02.106Z,2.50
2018-07-19T05:51:33.437Z,2.63
2018-07-19T05:54:05.019Z,3.10
2018-07-19T05:56:36.471Z,2.70
2018-07-19T05:59:07.756Z,3.17
2018-07-19T06:01:39.021Z,3.30
2018-07-19T06:04:10.509Z,3.57
2018-07-19T06:06:41.833Z,3.87
2018-07-19T06:09:13.120Z,3.63
2018-07-19T06:11:44.490Z,3.50
2018-07-19T06:14:16.038Z,3.50
2018-07-19T06:16:47.496Z,3.80
2018-07-19T06:19:18.700Z,3.77
2018-07-19T06:21:50.093Z,3.90
2018-07-19T06:24:21.350Z,3.23
2018-07-19T06:26:52.733Z,3.23
2018-07-19T06:29:24.750Z,3.30
2018-07-19T06:31:56.421Z,3.10
2018-07-19T06:34:28.774Z,3.00
2018-07-19T06:37:00.204Z,3.30
2018-07-19T06:39:31.523Z,3.27
2018-07-19T06:42:03.095Z,3.63
2018-07-19T06:44:35.029Z,3.43
2018-07-19T06:47:06.432Z,3.57
2018-07-19T06:49:37.770Z,3.20
2018-07-19T06:52:09.326Z,3.30
2018-07-19T06:54:40.677Z,3.07
2018-07-19T06:57:12.076Z,2.90
2018-07-19T06:59:43.392Z,2.83
2018-07-19T07:02:14.854Z,3.00
2018-07-19T07:04:46.185Z,3.23
2018-07-19T07:07:17.387Z,3.47
2018-07-19T07:09:48.632Z,3.27
2018-07-19T07:12:20.214Z,3.07
2018-07-19T07:14:51.445Z,3.07
2018-07-19T07:17:21.845Z,3.40
2018-07-19T07:19:53.501Z,3.10
2018-07-19T07:22:24.783Z,2.90
2018-07-19T07:24:55.994Z,3.30
2018-07-19T07:27:27.440Z,3.57
2018-07-19T07:29:58.663Z,3.40
2018-07-19T07:32:29.934Z,3.93
2018-07-19T07:35:01.338Z,3.40
2018-07-19T07:37:32.682Z,3.70
2018-07-19T07:40:04.023Z,3.40
2018-07-19T07:42:35.297Z,3.60
2018-07-19T07:45:07.303Z,3.30
2018-07-19T07:47:38.486Z,3.50
2018-07-19T07:50:10.324Z,3.70
2018-07-19T07:52:43.129Z,3.60
2018-07-19T07:55:14.368Z,3.60
2018-07-19T07:57:45.638Z,3.80
2018-07-19T08:00:16.962Z,3.60
2018-07-19T08:02:48.437Z,3.23
2018-07-19T08:05:19.758Z,3.23
2018-07-19T08:07:50.955Z,3.97
2018-07-19T08:10:22.339Z,4.00
2018-07-19T08:12:53.821Z,3.77
2018-07-19T08:15:25.014Z,4.03
2018-07-19T08:17:56.300Z,4.47
2018-07-19T08:20:27.632Z,3.93
2018-07-19T08:22:59.065Z,3.83
2018-07-19T08:25:30.492Z,4.33
2018-07-19T08:28:01.789Z,4.33
2018-07-19T08:30:33.160Z,4.33
2018-07-19T08:33:04.309Z,4.13
2018-07-19T08:35:35.593Z,4.00
2018-07-19T08:38:07.284Z,3.90
2018-07-19T08:40:38.629Z,4.07
2018-07-19T08:43:09.995Z,3.27
2018-07-19T08:45:41.436Z,2.97
2018-07-19T08:48:12.850Z,3.67
2018-07-19T08:50:44.160Z,3.67
2018-07-19T08:53:15.306Z,3.80
2018-07-19T08:55:46.743Z,3.80
2018-07-19T08:58:18.075Z,4.00
2018-07-19T09:00:49.488Z,4.43
2018-07-19T09:03:21.475Z,4.33
2018-07-19T09:05:52.751Z,4.10
2018-07-19T09:08:24.076Z,3.93
2018-07-19T09:10:55.236Z,3.63
2018-07-19T09:13:26.474Z,3.83
2018-07-19T09:15:57.771Z,3.70
2018-07-19T09:18:29.166Z,3.90
2018-07-19T09:21:00.491Z,4.20
2018-07-19T09:23:31.856Z,3.80
2018-07-19T09:26:03.159Z,3.63
2018-07-19T09:28:34.414Z,3.87
2018-07-19T09:31:05.727Z,4.07
2018-07-19T09:33:36.946Z,3.67
2018-07-19T09:36:08.345Z,3.83
2018-07-19T09:38:40.061Z,3.47
2018-07-19T09:41:11.595Z,3.80
2018-07-19T09:43:42.996Z,3.63
2018-07-19T09:46:14.319Z,3.50
2018-07-19T09:48:46.134Z,3.17
2018-07-19T09:51:17.531Z,3.70
2018-07-19T09:53:49.109Z,4.00
2018-07-19T09:56:20.754Z,3.97
2018-07-19T09:58:52.181Z,3.70
2018-07-19T10:01:23.546Z,3.63
2018-07-19T10:03:54.069Z,3.90
2018-07-19T10:06:25.691Z,3.63
2018-07-19T10:08:56.983Z,3.53
2018-07-19T10:11:28.394Z,3.10
2018-07-19T10:13:59.786Z,3.20
2018-07-19T10:16:31.195Z,3.37
2018-07-19T10:19:02.563Z,3.13
2018-07-19T10:21:34.059Z,3.53
2018-07-19T10:24:05.292Z,4.37
2018-07-19T10:26:36.516Z,4.27
2018-07-19T10:29:08.124Z,4.73
2018-07-19T10:31:39.453Z,4.20
2018-07-19T10:34:11.326Z,4.70
2018-07-19T10:36:42.796Z,4.47
2018-07-19T10:39:14.064Z,4.80
2018-07-19T10:41:45.671Z,5.23
2018-07-19T10:44:16.963Z,5.47
2018-07-19T10:46:48.534Z,6.13
2018-07-19T10:49:19.931Z,5.17
2018-07-19T10:51:51.337Z,5.00
2018-07-19T10:54:22.577Z,4.93
2018-07-19T10:56:54.083Z,3.57
2018-07-19T10:59:25.493Z,3.50
2018-07-19T11:01:56.976Z,3.23
2018-07-19T11:04:28.061Z,3.30
2018-07-19T11:06:59.582Z,3.30
2018-07-19T11:09:30.888Z,3.13
2018-07-19T11:12:02.263Z,3.03
2018-07-19T11:14:33.562Z,2.43
2018-07-19T11:17:04.925Z,2.63
2018-07-19T11:19:36.502Z,2.80
2018-07-19T11:22:07.826Z,3.00
2018-07-19T11:24:39.128Z,2.60
2018-07-19T11:27:10.271Z,2.73
2018-07-19T11:29:41.544Z,3.10
2018-07-19T11:32:12.766Z,2.73
2018-07-19T11:34:44.037Z,3.40
2018-07-19T11:37:15.484Z,3.03
2018-07-19T11:39:47.827Z,2.83
2018-07-19T11:42:19.246Z,3.20
2018-07-19T11:44:50.701Z,3.00
2018-07-19T11:47:22.469Z,3.00
2018-07-19T11:49:54.061Z,2.63
2018-07-19T11:52:25.643Z,2.67
2018-07-19T11:54:56.893Z,2.90
2018-07-19T11:57:29.333Z,2.77
2018-07-19T12:00:00.689Z,2.97
2018-07-19T12:02:31.971Z,2.53
2018-07-19T12:05:03.359Z,2.50
2018-07-19T12:07:34.622Z,2.73
2018-07-19T12:10:06.620Z,2.70
2018-07-19T12:12:36.842Z,2.33
2018-07-19T12:15:07.243Z,2.20
2018-07-19T12:17:38.804Z,2.10
2018-07-19T12:20:10.269Z,2.20
2018-07-19T12:22:41.540Z,2.30
2018-07-19T12:25:12.937Z,2.43
2018-07-19T12:27:44.405Z,2.30
2018-07-19T12:30:15.643Z,2.20
2018-07-19T12:32:47.008Z,2.20
2018-07-19T12:35:18.353Z,2.40
2018-07-19T12:37:49.789Z,2.27
2018-07-19T12:40:21.709Z,2.30
2018-07-19T12:42:53.429Z,2.10
2018-07-19T12:45:25.375Z,2.30
2018-07-19T12:47:57.445Z,2.43
2018-07-19T12:50:28.584Z,2.10
2018-07-19T12:52:59.825Z,2.00
2018-07-19T12:55:31.016Z,1.73
2018-07-19T12:58:02.158Z,2.00
2018-07-19T13:00:33.552Z,2.10
2018-07-19T13:03:04.898Z,2.50
2018-07-19T13:05:36.175Z,2.00
2018-07-19T13:08:07.339Z,2.10
2018-07-19T13:10:38.586Z,2.00
2018-07-19T13:13:09.965Z,2.00
2018-07-19T13:15:41.730Z,2.43
2018-07-19T13:18:12.884Z,2.10
2018-07-19T13:27:46.309Z,1.63
2018-07-19T13:30:17.620Z,1.70
2018-07-19T13:32:49.108Z,1.37
2018-07-19T13:35:20.353Z,1.93
2018-07-19T13:37:51.715Z,1.43
2018-07-19T13:40:23.013Z,1.60
2018-07-19T13:42:54.526Z,1.37
2018-07-19T13:45:26.089Z,1.63
2018-07-19T13:47:57.582Z,1.30
2018-07-19T13:50:29.179Z,1.50
2018-07-19T13:55:16.704Z,1.43
2018-07-19T13:57:48.037Z,1.77
2018-07-19T14:00:19.323Z,1.10
2018-07-19T14:02:50.718Z,1.20
2018-07-19T14:05:22.103Z,1.30
2018-07-19T14:07:53.730Z,1.03
2018-07-19T14:10:25.103Z,1.33
2018-07-19T14:12:56.618Z,1.17
2018-07-19T14:15:28.208Z,1.17
2018-07-19T14:17:59.777Z,1.10
2018-07-19T14:20:31.168Z,1.23
2018-07-19T14:23:02.391Z,1.10
2018-07-19T14:25:33.864Z,1.43
2018-07-19T14:28:05.644Z,1.00
2018-07-19T14:30:37.318Z,1.13
2018-07-19T14:33:08.872Z,1.50
2018-07-19T14:35:40.462Z,0.80
2018-07-19T14:38:11.933Z,1.13
2018-07-19T14:40:43.225Z,1.10
2018-07-19T14:43:14.696Z,1.40
2018-07-19T14:45:46.258Z,1.20
2018-07-19T14:48:17.647Z,1.00
2018-07-19T14:50:49.000Z,1.00
2018-07-19T14:53:20.319Z,1.30
2018-07-19T14:55:51.629Z,0.90
2018-07-19T14:58:23.774Z,0.87
2018-07-19T15:00:55.572Z,1.50
2018-07-19T15:03:28.871Z,1.20
2018-07-19T15:06:00.366Z,1.03
2018-07-19T15:08:31.729Z,1.20
2018-07-19T15:11:02.894Z,0.90
2018-07-19T15:13:34.473Z,1.10
2018-07-19T15:16:05.916Z,0.80
2018-07-19T15:18:37.298Z,0.70
2018-07-19T15:21:09.378Z,1.50
2018-07-19T15:23:40.985Z,1.10
2018-07-19T15:26:12.425Z,0.90
2018-07-19T15:28:43.977Z,0.83
2018-07-19T15:31:15.418Z,0.80
2018-07-19T15:33:46.662Z,1.10
2018-07-19T15:36:18.269Z,1.30
2018-07-19T15:38:49.562Z,1.40
2018-07-19T15:41:20.928Z,1.10
2018-07-19T15:43:52.383Z,1.17
2018-07-19T15:46:23.771Z,0.87
2018-07-19T15:48:55.085Z,1.50
2018-07-19T15:51:26.352Z,0.90
2018-07-19T15:53:57.663Z,1.27
2018-07-19T15:56:29.118Z,0.80
2018-07-19T15:59:00.543Z,0.97
2018-07-19T16:01:32.022Z,0.87
2018-07-19T16:04:03.681Z,1.00
2018-07-19T16:06:35.221Z,0.90
2018-07-19T16:09:08.931Z,0.93
2018-07-19T16:11:40.431Z,1.20
2018-07-19T16:14:10.729Z,0.90
2018-07-19T16:16:42.033Z,0.90
2018-07-19T16:19:13.771Z,0.97
2018-07-19T16:21:45.140Z,1.10
2018-07-19T16:24:16.928Z,1.10
2018-07-19T16:26:48.841Z,1.20
2018-07-19T16:29:20.216Z,1.13
2018-07-19T16:42:14.364Z,1.13
2018-07-19T16:44:46.057Z,1.43
2018-07-19T16:47:17.325Z,1.10
2018-07-19T16:49:48.996Z,1.20
2018-07-19T16:52:21.103Z,1.00
2018-07-19T16:54:52.438Z,0.80
2018-07-19T16:57:23.804Z,1.03
2018-07-19T16:59:55.308Z,1.20
2018-07-19T17:02:26.496Z,0.80
2018-07-19T17:04:57.530Z,0.90
2018-07-19T17:07:28.888Z,0.80
2018-07-19T17:10:00.255Z,0.67
2018-07-19T17:12:31.484Z,0.80
2018-07-19T17:15:02.652Z,0.73
2018-07-19T17:17:33.893Z,0.80
2018-07-19T17:20:05.399Z,0.60
2018-07-19T17:22:37.079Z,0.90
2018-07-19T17:25:08.360Z,1.00
2018-07-19T17:27:39.581Z,1.17
2018-07-19T17:30:10.906Z,0.63
2018-07-19T17:32:42.210Z,1.10
2018-07-19T17:35:13.559Z,1.10
2018-07-19T17:37:44.962Z,0.90
2018-07-19T17:40:16.361Z,1.00
2018-07-19T17:42:47.503Z,1.17
2018-07-19T17:45:18.740Z,1.03
2018-07-19T17:47:50.273Z,0.90
2018-07-19T17:50:21.408Z,0.93
2018-07-19T17:52:52.688Z,1.00
2018-07-19T17:55:23.890Z,0.77
2018-07-19T17:57:55.167Z,0.90
2018-07-19T18:00:26.457Z,0.80
2018-07-19T18:02:57.890Z,0.83
2018-07-19T18:05:29.167Z,1.23
2018-07-19T18:08:01.666Z,1.00
2018-07-19T18:10:32.914Z,1.10
2018-07-19T18:13:04.119Z,0.70
2018-07-19T18:15:35.342Z,1.50
2018-07-19T18:18:06.649Z,0.93
2018-07-19T18:20:37.956Z,0.87
2018-07-19T18:23:09.270Z,1.07
2018-07-19T18:25:40.402Z,1.10
2018-07-19T18:28:11.499Z,1.00
2018-07-19T18:30:42.740Z,1.00
2018-07-19T18:33:13.945Z,1.03
2018-07-19T18:35:45.387Z,1.00
2018-07-19T18:38:16.894Z,1.20
2018-07-19T18:40:48.262Z,0.90
2018-07-19T18:43:19.856Z,1.07
2018-07-19T18:45:51.130Z,1.00
2018-07-19T18:48:22.366Z,0.90
2018-07-19T18:50:53.693Z,0.93
2018-07-19T18:53:24.941Z,0.77
2018-07-19T18:55:56.285Z,0.50
2018-07-19T18:58:27.602Z,1.10
2018-07-19T19:00:58.785Z,0.90
2018-07-19T19:03:30.101Z,0.90
2018-07-19T19:06:01.431Z,0.60
2018-07-19T19:08:32.631Z,0.90
2018-07-19T19:11:04.037Z,1.87
2018-07-19T19:13:35.352Z,1.97
2018-07-19T19:16:06.563Z,2.00
2018-07-19T19:18:38.027Z,1.07
2018-07-19T19:21:09.422Z,1.90
2018-07-19T19:23:40.670Z,1.00
2018-07-19T19:26:11.911Z,0.60
2018-07-19T19:28:43.169Z,0.77
2018-07-19T19:31:14.503Z,0.60
2018-07-19T19:33:45.779Z,0.80
2018-07-19T19:36:17.018Z,1.00
2018-07-19T19:38:48.318Z,0.83
2018-07-19T19:41:19.613Z,0.50
2018-07-19T19:43:51.192Z,0.80
2018-07-19T19:46:22.442Z,0.87
2018-07-19T19:48:53.588Z,0.80
2018-07-19T19:51:24.802Z,1.00
2018-07-19T19:53:56.222Z,0.90
2018-07-19T19:56:27.429Z,0.90
2018-07-19T19:58:58.725Z,0.87
2018-07-19T20:01:29.994Z,0.90
2018-07-19T20:04:01.148Z,1.30
2018-07-19T20:06:32.280Z,1.00
2018-07-19T20:09:03.509Z,1.03
2018-07-19T20:11:34.810Z,0.73
2018-07-19T20:14:06.086Z,0.80
2018-07-19T20:16:37.359Z,0.87
2018-07-19T20:19:09.746Z,0.97
2018-07-19T20:21:41.033Z,1.10
2018-07-19T20:24:12.388Z,1.10
2018-07-19T20:26:43.734Z,0.90
2018-07-19T20:29:14.991Z,0.90
2018-07-19T20:31:46.386Z,1.10
2018-07-19T20:34:20.448Z,0.77
2018-07-19T20:36:48.841Z,0.90
2018-07-19T20:39:20.145Z,1.40
2018-07-19T20:41:51.326Z,1.60
2018-07-19T20:44:22.731Z,1.10
2018-07-19T20:46:54.269Z,1.20
2018-07-19T20:49:25.533Z,1.07
2018-07-19T20:51:56.757Z,1.10
2018-07-19T20:54:28.250Z,1.03
2018-07-19T20:56:59.550Z,1.07
2018-07-19T20:59:30.942Z,1.00
2018-07-19T21:02:02.388Z,1.20
2018-07-19T21:04:34.111Z,1.10
2018-07-19T21:07:05.485Z,1.00
2018-07-19T21:09:36.673Z,1.00
2018-07-19T21:12:07.973Z,1.17
2018-07-19T21:14:39.121Z,1.27
2018-07-19T21:17:09.501Z,1.33
2018-07-19T21:19:40.626Z,1.10
2018-07-19T21:22:11.909Z,1.07
2018-07-19T21:24:43.245Z,1.13
2018-07-19T21:27:14.661Z,1.27
2018-07-19T21:29:46.022Z,1.30
2018-07-19T21:32:17.278Z,1.27
2018-07-19T21:34:48.547Z,1.00
2018-07-19T21:37:19.901Z,1.30
2018-07-19T21:39:51.151Z,1.40
2018-07-19T21:42:22.415Z,1.70
2018-07-19T21:44:53.665Z,1.43
2018-07-19T21:47:25.413Z,1.43
2018-07-19T21:49:56.759Z,1.30
2018-07-19T21:52:28.084Z,1.47
2018-07-19T21:54:59.366Z,1.83
2018-07-19T21:57:30.561Z,1.23
2018-07-19T22:00:01.877Z,1.50
2018-07-19T22:02:33.240Z,1.60
2018-07-19T22:05:04.457Z,1.60
2018-07-19T22:07:35.601Z,1.70
2018-07-19T22:10:06.932Z,1.73
2018-07-19T22:16:21.027Z,1.87
2018-07-19T22:18:52.286Z,1.90
2018-07-19T22:21:23.626Z,1.50
2018-07-19T22:23:54.763Z,1.70
2018-07-19T22:26:26.239Z,2.00
2018-07-19T22:28:57.409Z,2.30
2018-07-19T22:31:28.725Z,2.20
2018-07-19T22:34:00.027Z,2.00
2018-07-19T22:36:31.169Z,1.77
2018-07-19T22:39:03.124Z,1.53
2018-07-19T22:41:34.104Z,1.67
2018-07-19T22:44:05.153Z,1.77
2018-07-19T22:46:36.482Z,1.23
2018-07-19T22:49:07.521Z,1.37
2018-07-19T22:51:38.746Z,1.00
2018-07-19T22:54:09.912Z,1.50
2018-07-19T22:56:41.192Z,1.00
2018-07-19T22:59:12.447Z,1.40
2018-07-19T23:01:43.813Z,1.33
2018-07-19T23:04:17.169Z,1.03
2018-07-19T23:06:48.569Z,1.00
2018-07-19T23:09:19.929Z,1.30
2018-07-19T23:11:51.141Z,1.30
2018-07-19T23:14:22.265Z,1.30
2018-07-19T23:16:53.400Z,1.40
2018-07-19T23:19:24.719Z,1.30
2018-07-19T23:21:56.219Z,1.53
2018-07-19T23:24:27.894Z,1.43
2018-07-19T23:27:00.159Z,1.10
2018-07-19T23:29:32.583Z,1.70
2018-07-19T23:32:04.323Z,1.37
2018-07-19T23:34:36.088Z,1.20
2018-07-19T23:37:17.104Z,1.00
2018-07-19T23:39:54.257Z,1.27
2018-07-19T23:42:29.101Z,1.50
2018-07-19T23:47:06.916Z,1.20
2018-07-19T23:49:39.164Z,1.63
2018-07-19T23:52:11.020Z,1.50
2018-07-19T23:54:42.679Z,1.53
2018-07-19T23:57:14.307Z,1.70
2018-07-19T23:59:45.778Z,1.40
